Time;durP1;ratioP1;P1;durP2;ratioP2;P2;SDS_P1;SDS_P2;PMS_P1;PMS_P2;Temp;Humidity;BMP_temperature;BMP_pressure;BME280_temperature;BME280_humidity;BME280_pressure;Samples;Min_cycle;Max_cycle;Signal;HPM_P1;HPM_P2
2021/05/30 00:05:17;;;;;;;12.83;9.10;;;;;;;;;;4973724;28;20487;-96
2021/05/30 00:07:43;;;;;;;9.60;8.67;;;;;;;;;;4977529;28;20447;-96
2021/05/30 00:10:24;;;;;;;9.53;8.63;;;;;;;;;;4982104;28;20529;-96
2021/05/30 00:12:50;;;;;;;10.50;9.40;;;;;;;;;;4960076;28;20487;-96
2021/05/30 00:15:17;;;;;;;9.60;8.37;;;;;;;;;;4974430;28;20628;-96
2021/05/30 00:17:43;;;;;;;9.90;8.90;;;;;;;;;;4973599;28;20495;-96
2021/05/30 00:25:48;;;;;;;10.17;9.17;;;;;;;;;;5058323;23;20554;-96
2021/05/30 00:28:14;;;;;;;9.67;8.80;;;;;;;;;;4971979;28;20439;-96
2021/05/30 00:35:55;;;;;;;8.97;8.20;;;;;;;;;;4952308;29;20522;-96
2021/05/30 00:44:00;;;;;;;9.17;8.30;;;;;;;;;;5501382;23;20599;-95
2021/05/30 00:46:29;;;;;;;9.40;8.50;;;;;;;;;;4929212;29;20876;-96
2021/05/30 00:49:08;;;;;;;8.67;7.97;;;;;;;;;;4933104;29;20443;-96
2021/05/30 00:51:34;;;;;;;9.23;8.30;;;;;;;;;;4940122;29;20453;-96
2021/05/30 00:54:00;;;;;;;9.13;8.33;;;;;;;;;;4904034;29;20461;-95
2021/05/30 00:56:26;;;;;;;9.50;8.70;;;;;;;;;;4911240;29;20489;-95
2021/05/30 00:58:52;;;;;;;9.17;8.47;;;;;;;;;;4909340;29;20476;-96
2021/05/30 01:01:19;;;;;;;9.23;8.37;;;;;;;;;;4916354;29;20503;-96
2021/05/30 01:03:45;;;;;;;8.80;8.00;;;;;;;;;;4912768;29;20469;-96
2021/05/30 01:06:11;;;;;;;9.80;8.90;;;;;;;;;;4925608;29;20533;-96
2021/05/30 01:08:38;;;;;;;9.37;8.57;;;;;;;;;;4917795;29;20470;-96
2021/05/30 01:11:05;;;;;;;8.10;7.40;;;;;;;;;;4922557;29;20483;-96
2021/05/30 01:13:33;;;;;;;8.63;7.83;;;;;;;;;;4924363;29;20465;-95
2021/05/30 01:15:59;;;;;;;9.40;8.50;;;;;;;;;;4918485;29;20500;-96
2021/05/30 01:18:26;;;;;;;8.50;7.70;;;;;;;;;;4916698;29;20453;-96
2021/05/30 01:20:53;;;;;;;8.53;7.77;;;;;;;;;;4914690;29;20507;-95
2021/05/30 01:23:21;;;;;;;9.80;9.00;;;;;;;;;;4918002;29;20472;-96
2021/05/30 01:25:48;;;;;;;8.60;7.90;;;;;;;;;;4910191;29;20489;-96
2021/05/30 01:28:15;;;;;;;9.30;8.33;;;;;;;;;;4920640;29;20486;-96
2021/05/30 01:30:41;;;;;;;9.27;8.47;;;;;;;;;;4922918;29;20497;-96
2021/05/30 01:33:08;;;;;;;9.33;8.53;;;;;;;;;;4928357;29;20460;-96
2021/05/30 01:35:34;;;;;;;9.90;9.00;;;;;;;;;;4914920;29;20465;-96
2021/05/30 01:38:01;;;;;;;9.90;8.97;;;;;;;;;;4923070;29;20441;-96
2021/05/30 01:40:30;;;;;;;10.40;9.50;;;;;;;;;;4911850;29;20461;-96
2021/05/30 01:42:56;;;;;;;9.17;8.37;;;;;;;;;;4910879;29;21024;-96
2021/05/30 01:45:23;;;;;;;10.40;9.37;;;;;;;;;;4922778;29;20480;-96
2021/05/30 01:47:49;;;;;;;8.83;8.13;;;;;;;;;;4927153;29;20470;-96
2021/05/30 01:50:17;;;;;;;9.43;8.63;;;;;;;;;;4909061;29;20468;-95
2021/05/30 01:52:43;;;;;;;8.70;8.00;;;;;;;;;;4904474;29;20457;-96
2021/05/30 01:55:16;;;;;;;9.90;8.90;;;;;;;;;;4911411;29;20472;-95
2021/05/30 01:57:45;;;;;;;9.57;8.70;;;;;;;;;;4916704;29;20493;-96
2021/05/30 02:00:11;;;;;;;9.70;8.30;;;;;;;;;;4908254;29;20464;-96
2021/05/30 02:02:38;;;;;;;10.20;9.10;;;;;;;;;;4924126;29;20448;-95
2021/05/30 02:05:04;;;;;;;9.63;8.83;;;;;;;;;;4917430;29;20462;-96
2021/05/30 02:07:32;;;;;;;9.50;8.57;;;;;;;;;;4914732;29;20508;-95
2021/05/30 02:09:58;;;;;;;9.40;8.60;;;;;;;;;;4924933;29;20477;-95
2021/05/30 02:12:25;;;;;;;8.97;8.17;;;;;;;;;;4917286;29;20468;-95
2021/05/30 02:14:54;;;;;;;9.30;8.47;;;;;;;;;;4911210;29;20461;-94
2021/05/30 02:17:20;;;;;;;9.80;8.80;;;;;;;;;;4915116;29;20503;-95
2021/05/30 02:19:46;;;;;;;8.40;7.70;;;;;;;;;;4908759;29;20464;-96
2021/05/30 02:22:12;;;;;;;12.40;8.47;;;;;;;;;;4907114;29;20476;-95
2021/05/30 02:24:38;;;;;;;8.83;8.13;;;;;;;;;;4916405;29;20466;-96
2021/05/30 02:27:04;;;;;;;8.23;7.53;;;;;;;;;;4898243;29;20483;-95
2021/05/30 02:29:34;;;;;;;8.20;7.40;;;;;;;;;;4913913;29;20465;-96
2021/05/30 02:32:01;;;;;;;9.00;8.23;;;;;;;;;;4917072;29;20970;-96
2021/05/30 02:34:27;;;;;;;8.93;8.13;;;;;;;;;;4918725;29;21194;-96
2021/05/30 02:36:54;;;;;;;8.07;7.37;;;;;;;;;;4922577;29;20497;-96
2021/05/30 02:39:20;;;;;;;8.87;8.17;;;;;;;;;;4917573;29;20456;-95
2021/05/30 02:41:46;;;;;;;8.97;8.17;;;;;;;;;;4939107;29;20441;-95
2021/05/30 02:44:12;;;;;;;8.97;8.17;;;;;;;;;;4925800;29;20848;-96
2021/05/30 02:46:38;;;;;;;9.60;8.70;;;;;;;;;;4934790;29;20455;-96
2021/05/30 02:49:05;;;;;;;8.77;8.00;;;;;;;;;;4917806;29;20469;-96
2021/05/30 02:51:33;;;;;;;9.03;8.23;;;;;;;;;;4909508;29;20457;-95
2021/05/30 02:53:59;;;;;;;9.37;8.50;;;;;;;;;;4909743;29;20468;-96
2021/05/30 02:56:25;;;;;;;9.23;8.00;;;;;;;;;;4925155;29;20484;-96
2021/05/30 02:58:51;;;;;;;8.13;7.50;;;;;;;;;;4913143;29;20473;-96
2021/05/30 03:01:17;;;;;;;8.77;7.97;;;;;;;;;;4919624;29;20469;-96
2021/05/30 03:03:44;;;;;;;9.37;8.43;;;;;;;;;;4914036;29;20461;-95
2021/05/30 03:06:11;;;;;;;9.83;8.33;;;;;;;;;;4931392;29;20444;-96
2021/05/30 03:08:37;;;;;;;9.80;8.80;;;;;;;;;;4913128;29;20461;-94
2021/05/30 03:11:03;;;;;;;8.77;7.87;;;;;;;;;;4921097;29;20460;-96
2021/05/30 03:13:29;;;;;;;9.73;8.83;;;;;;;;;;4922736;29;20484;-95
2021/05/30 03:15:55;;;;;;;8.23;7.43;;;;;;;;;;4923919;29;20488;-95
2021/05/30 03:18:21;;;;;;;7.97;7.37;;;;;;;;;;4925036;29;20500;-96
2021/05/30 03:20:47;;;;;;;8.50;7.80;;;;;;;;;;4910300;29;20495;-94
2021/05/30 03:23:14;;;;;;;8.47;7.87;;;;;;;;;;4915269;29;20452;-96
2021/05/30 03:25:40;;;;;;;9.27;8.37;;;;;;;;;;4916166;29;20497;-95
2021/05/30 03:28:06;;;;;;;9.30;8.50;;;;;;;;;;4919066;29;20457;-95
2021/05/30 03:30:32;;;;;;;9.80;8.90;;;;;;;;;;4917003;29;20907;-96
2021/05/30 03:33:00;;;;;;;9.60;8.73;;;;;;;;;;4909046;29;20513;-94
2021/05/30 03:35:26;;;;;;;9.60;8.70;;;;;;;;;;4924144;29;20464;-96
2021/05/30 03:37:52;;;;;;;9.93;9.03;;;;;;;;;;4930059;29;20494;-95
2021/05/30 03:40:28;;;;;;;9.70;8.70;;;;;;;;;;4927288;29;20449;-95
2021/05/30 03:42:54;;;;;;;9.80;8.37;;;;;;;;;;4910900;29;20491;-96
2021/05/30 03:45:20;;;;;;;11.27;9.20;;;;;;;;;;4910342;29;20479;-96
2021/05/30 03:47:47;;;;;;;9.37;8.47;;;;;;;;;;4911953;29;20477;-95
2021/05/30 03:50:13;;;;;;;10.03;8.97;;;;;;;;;;4912651;29;20469;-95
2021/05/30 03:52:39;;;;;;;9.90;8.97;;;;;;;;;;4929342;29;20459;-96
2021/05/30 03:55:06;;;;;;;9.13;8.33;;;;;;;;;;4923681;29;20469;-95
2021/05/30 03:57:46;;;;;;;9.37;8.57;;;;;;;;;;4913560;29;20663;-96
2021/05/30 04:00:14;;;;;;;9.60;8.70;;;;;;;;;;4908933;29;20476;-96
2021/05/30 04:02:40;;;;;;;10.00;9.00;;;;;;;;;;4910751;29;21206;-96
2021/05/30 04:05:06;;;;;;;9.60;8.70;;;;;;;;;;4909861;29;20449;-96
2021/05/30 04:07:33;;;;;;;9.23;8.43;;;;;;;;;;4923367;29;20448;-96
2021/05/30 04:10:02;;;;;;;10.37;9.30;;;;;;;;;;4917735;29;20520;-95
2021/05/30 04:15:32;;;;;;;9.43;8.63;;;;;;;;;;5021356;23;20516;-95
2021/05/30 04:17:58;;;;;;;10.40;9.50;;;;;;;;;;4978670;28;20501;-95
2021/05/30 04:20:25;;;;;;;9.87;8.97;;;;;;;;;;4977238;28;20450;-96
2021/05/30 04:23:07;;;;;;;10.03;9.03;;;;;;;;;;5237363;23;20510;-96
2021/05/30 04:25:33;;;;;;;9.80;9.00;;;;;;;;;;5295280;23;20502;-95
2021/05/30 04:27:59;;;;;;;9.13;8.33;;;;;;;;;;4953975;29;20442;-96
2021/05/30 04:30:25;;;;;;;9.63;8.50;;;;;;;;;;4955166;29;20463;-96
2021/05/30 04:32:53;;;;;;;9.00;8.20;;;;;;;;;;4955319;28;20474;-96
2021/05/30 04:35:19;;;;;;;10.50;9.50;;;;;;;;;;4949505;29;20554;-96
2021/05/30 04:37:46;;;;;;;10.13;9.23;;;;;;;;;;4954273;29;20495;-96
2021/05/30 04:40:12;;;;;;;9.93;9.03;;;;;;;;;;4949001;29;20562;-96
2021/05/30 04:42:39;;;;;;;11.07;10.00;;;;;;;;;;4965929;29;20469;-96
2021/05/30 04:45:06;;;;;;;12.77;8.90;;;;;;;;;;4959936;29;20458;-96
2021/05/30 04:47:32;;;;;;;10.33;9.43;;;;;;;;;;4948509;29;20452;-94
2021/05/30 04:49:59;;;;;;;13.67;9.97;;;;;;;;;;4959216;29;20443;-95
2021/05/30 04:52:25;;;;;;;11.50;10.40;;;;;;;;;;4950780;29;20464;-96
2021/05/30 04:54:53;;;;;;;9.53;8.73;;;;;;;;;;4946968;29;20458;-96
2021/05/30 04:57:19;;;;;;;11.30;10.20;;;;;;;;;;4938358;29;20497;-96
2021/05/30 04:59:45;;;;;;;10.27;9.37;;;;;;;;;;4947101;29;20459;-96
2021/05/30 05:02:11;;;;;;;9.80;8.90;;;;;;;;;;4956821;29;20459;-94
2021/05/30 05:04:37;;;;;;;9.80;9.00;;;;;;;;;;4946281;29;20463;-96
2021/05/30 05:07:04;;;;;;;10.73;9.93;;;;;;;;;;4947752;29;21314;-95
2021/05/30 05:09:32;;;;;;;13.77;12.47;;;;;;;;;;4945958;29;20464;-96
2021/05/30 05:11:58;;;;;;;13.50;12.33;;;;;;;;;;4950098;29;20489;-95
2021/05/30 05:14:26;;;;;;;15.13;13.77;;;;;;;;;;4957035;29;20463;-94
2021/05/30 05:25:23;;;;;;;11.93;10.93;;;;;;;;;;4942632;29;20651;-96
2021/05/30 05:27:50;;;;;;;14.00;12.60;;;;;;;;;;5243783;23;20517;-96
2021/05/30 05:30:23;;;;;;;14.70;12.40;;;;;;;;;;4956327;29;20455;-96
2021/05/30 05:32:49;;;;;;;11.87;10.67;;;;;;;;;;4962068;29;20459;-96
2021/05/30 05:35:15;;;;;;;11.90;10.80;;;;;;;;;;4941755;29;20820;-93
2021/05/30 05:37:41;;;;;;;10.97;9.87;;;;;;;;;;4953974;29;20494;-96
2021/05/30 05:40:08;;;;;;;10.30;9.40;;;;;;;;;;4963544;28;20448;-96
2021/05/30 05:42:37;;;;;;;11.10;10.20;;;;;;;;;;4960360;28;20447;-96
2021/05/30 05:45:03;;;;;;;9.60;8.90;;;;;;;;;;4949744;28;20456;-95
2021/05/30 05:47:33;;;;;;;10.53;9.20;;;;;;;;;;4958789;29;20460;-96
2021/05/30 05:49:59;;;;;;;10.10;9.10;;;;;;;;;;4957937;29;20470;-95
2021/05/30 05:52:27;;;;;;;11.23;10.10;;;;;;;;;;4961122;29;20456;-96
2021/05/30 05:54:55;;;;;;;9.53;8.63;;;;;;;;;;4957420;29;21005;-96
2021/05/30 05:57:25;;;;;;;10.63;7.60;;;;;;;;;;4944322;29;20499;-96
2021/05/30 05:59:52;;;;;;;9.03;8.23;;;;;;;;;;4946118;29;20458;-94
2021/05/30 06:02:18;;;;;;;8.37;7.67;;;;;;;;;;4948774;29;20474;-95
2021/05/30 06:04:45;;;;;;;8.83;8.10;;;;;;;;;;4959589;29;20461;-95
2021/05/30 06:07:19;;;;;;;7.70;7.10;;;;;;;;;;4957385;29;20462;-94
2021/05/30 06:09:50;;;;;;;7.83;7.10;;;;;;;;;;5007467;23;20558;-95
2021/05/30 06:12:16;;;;;;;9.43;8.50;;;;;;;;;;4948401;29;20550;-96
2021/05/30 06:14:47;;;;;;;10.93;6.53;;;;;;;;;;4961440;29;20480;-96
2021/05/30 06:28:03;;;;;;;6.47;5.97;;;;;;;;;;5125003;23;20500;-96
2021/05/30 06:38:26;;;;;;;5.70;5.20;;;;;;;;;;5735475;23;20478;-96
2021/05/30 06:48:54;;;;;;;6.53;5.93;;;;;;;;;;4796805;23;8259017;-96
2021/05/30 06:51:22;;;;;;;6.53;5.93;;;;;;;;;;5144533;23;20245;-96
2021/05/30 06:53:50;;;;;;;7.00;5.90;;;;;;;;;;4965019;28;20444;-95
2021/05/30 07:01:33;;;;;;;5.77;4.83;;;;;;;;;;3155161;26;20514;-96
2021/05/30 07:04:01;;;;;;;4.47;3.50;;;;;;;;;;5082336;23;20489;-96
2021/05/30 07:06:27;;;;;;;3.23;2.63;;;;;;;;;;4975983;23;21047;-95
2021/05/30 07:09:19;;;;;;;3.20;3.00;;;;;;;;;;4951309;29;20436;-96
2021/05/30 07:14:55;;;;;;;6.07;2.73;;;;;;;;;;4947007;29;20437;-94
2021/05/30 07:19:58;;;;;;;3.40;3.13;;;;;;;;;;3122699;27;20529;-95
2021/05/30 07:22:25;;;;;;;5.00;3.20;;;;;;;;;;4926229;29;20475;-96
2021/05/30 07:24:51;;;;;;;3.20;3.00;;;;;;;;;;4928626;29;20456;-95
2021/05/30 07:27:18;;;;;;;4.63;3.80;;;;;;;;;;5036082;23;20500;-96
2021/05/30 07:29:54;;;;;;;5.57;3.50;;;;;;;;;;4945966;29;20451;-96
2021/05/30 07:32:23;;;;;;;6.43;3.93;;;;;;;;;;4941999;29;20456;-96
2021/05/30 07:34:56;;;;;;;4.63;3.50;;;;;;;;;;4949652;29;20510;-96
2021/05/30 07:40:09;;;;;;;5.27;3.30;;;;;;;;;;4950466;29;20465;-95
2021/05/30 07:42:39;;;;;;;4.97;3.43;;;;;;;;;;5004352;23;21972;-95
2021/05/30 07:45:08;;;;;;;5.03;3.17;;;;;;;;;;4939725;29;20447;-93
2021/05/30 07:47:42;;;;;;;5.63;3.63;;;;;;;;;;4938781;29;20533;-95
2021/05/30 07:50:12;;;;;;;3.23;3.03;;;;;;;;;;4949297;23;20512;-96
2021/05/30 07:52:43;;;;;;;5.00;3.23;;;;;;;;;;4935406;29;20919;-95
2021/05/30 07:55:27;;;;;;;3.93;3.07;;;;;;;;;;4933940;29;20443;-94
2021/05/30 07:58:15;;;;;;;4.83;3.20;;;;;;;;;;4947147;29;20497;-96
2021/05/30 08:00:55;;;;;;;3.63;3.33;;;;;;;;;;4996552;23;20539;-96
2021/05/30 08:16:24;;;;;;;3.40;2.73;;;;;;;;;;4953378;29;20488;-95
2021/05/30 08:18:52;;;;;;;3.40;3.20;;;;;;;;;;4967290;29;20443;-95
2021/05/30 08:21:22;;;;;;;6.70;3.53;;;;;;;;;;4963946;29;20524;-96
2021/05/30 08:23:49;;;;;;;3.00;2.80;;;;;;;;;;4966812;29;20464;-96
2021/05/30 08:26:15;;;;;;;3.33;3.03;;;;;;;;;;5003952;23;20476;-96
2021/05/30 08:28:43;;;;;;;6.80;4.93;;;;;;;;;;4953189;29;20444;-96
2021/05/30 08:31:11;;;;;;;3.90;3.00;;;;;;;;;;5047649;23;20506;-94
2021/05/30 08:33:39;;;;;;;3.57;3.10;;;;;;;;;;4943756;29;20511;-96
2021/05/30 08:36:05;;;;;;;3.67;2.90;;;;;;;;;;4953070;29;20457;-92
2021/05/30 08:38:32;;;;;;;4.37;3.50;;;;;;;;;;4943818;29;20450;-96
2021/05/30 08:43:45;;;;;;;3.10;2.90;;;;;;;;;;4936313;29;20455;-94
2021/05/30 08:46:13;;;;;;;3.07;2.77;;;;;;;;;;4938167;29;20431;-96
2021/05/30 08:51:24;;;;;;;3.30;3.00;;;;;;;;;;4948280;23;20511;-94
2021/05/30 08:53:50;;;;;;;4.13;3.30;;;;;;;;;;4924241;29;20465;-94
2021/05/30 08:56:22;;;;;;;3.87;3.27;;;;;;;;;;4924634;29;20484;-96
2021/05/30 08:58:49;;;;;;;4.47;3.23;;;;;;;;;;4919401;29;20431;-96
2021/05/30 09:04:15;;;;;;;5.53;3.43;;;;;;;;;;4944216;23;20494;-92
2021/05/30 09:06:43;;;;;;;4.00;3.70;;;;;;;;;;4949519;29;20489;-95
2021/05/30 09:09:10;;;;;;;4.50;3.00;;;;;;;;;;4951094;29;20523;-95
2021/05/30 09:11:42;;;;;;;3.50;3.20;;;;;;;;;;4937090;29;20453;-96
2021/05/30 09:14:12;;;;;;;3.60;3.30;;;;;;;;;;4979316;23;20498;-96
2021/05/30 09:16:52;;;;;;;3.73;3.37;;;;;;;;;;4967784;28;20485;-96
2021/05/30 09:28:01;;;;;;;4.03;3.17;;;;;;;;;;4951462;28;20469;-94
2021/05/30 09:30:42;;;;;;;3.47;3.27;;;;;;;;;;4956057;29;20454;-94
2021/05/30 09:33:21;;;;;;;3.37;3.07;;;;;;;;;;4952166;29;20478;-96
2021/05/30 09:41:33;;;;;;;3.93;3.63;;;;;;;;;;4941638;29;20463;-96
2021/05/30 09:44:10;;;;;;;4.33;4.03;;;;;;;;;;4942953;29;20435;-94
2021/05/30 09:46:37;;;;;;;4.03;3.50;;;;;;;;;;4931716;29;20459;-96
2021/05/30 09:49:03;;;;;;;4.10;3.20;;;;;;;;;;4935161;29;20444;-95
2021/05/30 09:54:18;;;;;;;3.47;3.20;;;;;;;;;;4886209;27;20476;-96
2021/05/30 09:56:46;;;;;;;4.43;3.13;;;;;;;;;;4936281;29;20504;-94
2021/05/30 09:59:15;;;;;;;3.40;3.10;;;;;;;;;;4917716;29;20463;-94
2021/05/30 10:01:58;;;;;;;4.00;2.90;;;;;;;;;;4931674;29;20483;-95
2021/05/30 10:04:27;;;;;;;4.13;3.00;;;;;;;;;;4941890;29;20450;-96
2021/05/30 10:07:14;;;;;;;3.70;3.40;;;;;;;;;;4947543;29;20482;-96
2021/05/30 10:09:40;;;;;;;3.47;3.00;;;;;;;;;;4940294;29;20475;-96
2021/05/30 10:12:07;;;;;;;5.43;3.10;;;;;;;;;;4950768;29;20498;-96
2021/05/30 10:14:36;;;;;;;3.87;3.57;;;;;;;;;;4936567;29;20480;-96
2021/05/30 10:17:05;;;;;;;3.20;3.00;;;;;;;;;;4952706;29;20494;-96
2021/05/30 10:19:38;;;;;;;3.47;3.17;;;;;;;;;;4948023;29;20487;-96
2021/05/30 10:22:09;;;;;;;4.03;3.73;;;;;;;;;;5243894;23;20493;-96
2021/05/30 10:24:39;;;;;;;3.60;3.37;;;;;;;;;;5055508;23;20516;-94
2021/05/30 10:29:58;;;;;;;3.90;3.40;;;;;;;;;;4482406;26;20469;-96
2021/05/30 10:46:18;;;;;;;3.77;3.47;;;;;;;;;;5870543;23;20475;-96
2021/05/30 10:54:13;;;;;;;4.17;3.77;;;;;;;;;;5393515;23;20255;-96
2021/05/30 10:56:41;;;;;;;3.80;3.50;;;;;;;;;;4975528;23;20479;-95
2021/05/30 11:01:44;;;;;;;3.40;3.20;;;;;;;;;;4975411;23;20511;-95
2021/05/30 11:04:39;;;;;;;3.70;3.40;;;;;;;;;;4937780;29;20482;-96
2021/05/30 11:07:31;;;;;;;3.43;3.13;;;;;;;;;;4946857;23;20494;-96
2021/05/30 11:10:22;;;;;;;3.43;3.23;;;;;;;;;;4992954;23;20516;-96
2021/05/30 11:12:59;;;;;;;3.40;3.10;;;;;;;;;;4932418;29;20444;-96
2021/05/30 11:15:29;;;;;;;2.73;2.63;;;;;;;;;;5075095;23;20459;-96
2021/05/30 11:23:41;;;;;;;3.60;3.00;;;;;;;;;;4977226;23;20538;-95
2021/05/30 11:26:16;;;;;;;3.40;3.20;;;;;;;;;;5136776;23;20487;-96
2021/05/30 11:28:46;;;;;;;3.10;2.90;;;;;;;;;;4898720;29;20459;-95
2021/05/30 11:31:12;;;;;;;3.80;3.30;;;;;;;;;;4911820;29;20453;-94
2021/05/30 11:33:43;;;;;;;4.13;3.73;;;;;;;;;;4917319;29;20462;-93
2021/05/30 11:36:20;;;;;;;3.50;3.20;;;;;;;;;;4916956;29;20962;-96
2021/05/30 11:38:51;;;;;;;3.77;2.80;;;;;;;;;;4923872;29;20476;-96
2021/05/30 11:41:23;;;;;;;3.03;2.83;;;;;;;;;;4916332;29;20458;-96
2021/05/30 11:44:06;;;;;;;2.97;2.77;;;;;;;;;;4929730;29;20454;-96
2021/05/30 11:49:18;;;;;;;3.87;3.40;;;;;;;;;;4970241;23;20495;-96
2021/05/30 11:51:45;;;;;;;3.47;3.27;;;;;;;;;;4960341;29;20450;-96
2021/05/30 11:54:14;;;;;;;3.43;3.13;;;;;;;;;;4947689;29;20466;-96
2021/05/30 11:59:40;;;;;;;2.90;2.70;;;;;;;;;;4945203;29;20487;-94
2021/05/30 12:02:07;;;;;;;3.20;3.00;;;;;;;;;;4949350;29;20459;-94
2021/05/30 12:04:35;;;;;;;3.30;3.10;;;;;;;;;;4948024;29;20479;-94
2021/05/30 12:07:01;;;;;;;3.40;3.20;;;;;;;;;;4965677;29;20427;-94
2021/05/30 12:09:47;;;;;;;3.67;3.37;;;;;;;;;;4946581;29;20452;-95
2021/05/30 12:12:28;;;;;;;4.30;3.40;;;;;;;;;;4952689;29;20451;-96
2021/05/30 12:14:54;;;;;;;3.43;3.13;;;;;;;;;;4960497;29;20463;-96
2021/05/30 12:17:21;;;;;;;4.13;3.67;;;;;;;;;;4958662;29;21388;-95
2021/05/30 12:19:47;;;;;;;8.10;3.10;;;;;;;;;;5060199;23;21295;-94
2021/05/30 12:22:21;;;;;;;3.63;3.33;;;;;;;;;;4974028;23;20462;-96
2021/05/30 12:24:47;;;;;;;4.17;3.40;;;;;;;;;;4941850;29;20895;-93
2021/05/30 12:27:14;;;;;;;3.50;3.30;;;;;;;;;;4958600;29;20513;-96
2021/05/30 12:29:46;;;;;;;5.23;3.17;;;;;;;;;;4947715;29;20711;-94
2021/05/30 12:32:12;;;;;;;3.63;3.43;;;;;;;;;;4943645;28;20474;-95
2021/05/30 12:34:38;;;;;;;3.40;3.20;;;;;;;;;;4941450;29;20470;-96
2021/05/30 12:37:04;;;;;;;3.40;3.10;;;;;;;;;;4953063;29;20498;-96
2021/05/30 12:39:30;;;;;;;5.57;3.53;;;;;;;;;;4954032;29;20452;-95
2021/05/30 12:42:04;;;;;;;3.80;3.60;;;;;;;;;;4951086;29;20970;-96
2021/05/30 12:44:36;;;;;;;4.20;3.23;;;;;;;;;;4957269;29;20496;-95
2021/05/30 12:47:11;;;;;;;5.47;3.80;;;;;;;;;;4942648;29;20494;-96
2021/05/30 12:49:38;;;;;;;4.30;3.70;;;;;;;;;;4945067;29;20451;-92
2021/05/30 12:52:06;;;;;;;4.40;3.10;;;;;;;;;;4946346;29;20475;-95
2021/05/30 12:54:33;;;;;;;3.70;3.40;;;;;;;;;;4951919;29;20443;-94
2021/05/30 12:56:59;;;;;;;3.60;3.30;;;;;;;;;;4957448;29;20486;-93
2021/05/30 12:59:26;;;;;;;3.60;3.40;;;;;;;;;;4943230;29;20478;-95
2021/05/30 13:01:57;;;;;;;4.57;3.80;;;;;;;;;;4956312;29;20459;-95
2021/05/30 13:04:25;;;;;;;3.30;3.10;;;;;;;;;;4959110;29;20471;-93
2021/05/30 13:06:52;;;;;;;4.23;2.90;;;;;;;;;;4941142;29;20495;-93
2021/05/30 13:09:18;;;;;;;3.63;3.33;;;;;;;;;;4946904;29;20462;-94
2021/05/30 13:11:44;;;;;;;3.67;3.37;;;;;;;;;;4952858;29;20463;-95
2021/05/30 13:14:10;;;;;;;3.60;3.30;;;;;;;;;;4969522;29;20649;-94
2021/05/30 13:16:36;;;;;;;3.70;3.40;;;;;;;;;;4959633;29;20455;-93
2021/05/30 13:19:02;;;;;;;3.73;3.53;;;;;;;;;;4948771;29;20443;-96
2021/05/30 13:21:29;;;;;;;3.77;3.57;;;;;;;;;;4956070;29;20459;-92
2021/05/30 13:24:05;;;;;;;4.03;3.63;;;;;;;;;;4970940;23;20498;-94
2021/05/30 13:26:31;;;;;;;5.73;3.60;;;;;;;;;;4966044;28;20466;-93
2021/05/30 13:28:58;;;;;;;3.70;3.40;;;;;;;;;;4968314;28;20458;-94
2021/05/30 13:31:27;;;;;;;4.13;3.83;;;;;;;;;;4969642;28;20462;-95
2021/05/30 13:33:58;;;;;;;4.20;3.70;;;;;;;;;;4966842;28;20458;-95
2021/05/30 13:36:24;;;;;;;4.43;3.60;;;;;;;;;;4976983;28;20462;-94
2021/05/30 13:38:54;;;;;;;3.80;3.50;;;;;;;;;;4984270;28;20472;-95
2021/05/30 13:41:24;;;;;;;4.40;4.00;;;;;;;;;;4970214;28;20453;-96
2021/05/30 13:44:08;;;;;;;3.87;3.47;;;;;;;;;;4968705;28;20460;-95
2021/05/30 13:46:35;;;;;;;4.83;3.80;;;;;;;;;;4975897;28;20472;-95
2021/05/30 13:49:01;;;;;;;3.87;3.47;;;;;;;;;;4980822;28;20436;-96
2021/05/30 13:51:29;;;;;;;6.03;3.67;;;;;;;;;;4987587;28;20442;-96
2021/05/30 13:54:00;;;;;;;4.00;3.70;;;;;;;;;;4967211;28;20481;-95
2021/05/30 14:05:28;;;;;;;3.97;3.67;;;;;;;;;;5293411;23;20499;-96
2021/05/30 14:08:05;;;;;;;4.63;4.10;;;;;;;;;;4936108;29;20454;-96
2021/05/30 14:13:15;;;;;;;5.00;4.50;;;;;;;;;;4864787;27;20494;-96
2021/05/30 14:18:17;;;;;;;5.37;4.97;;;;;;;;;;5098663;23;20505;-96
2021/05/30 14:20:43;;;;;;;5.70;4.63;;;;;;;;;;4968839;28;20455;-94
2021/05/30 14:25:41;;;;;;;5.20;4.70;;;;;;;;;;4982807;23;20608;-96
2021/05/30 14:28:16;;;;;;;5.87;4.50;;;;;;;;;;4962936;29;20476;-96
2021/05/30 14:30:47;;;;;;;5.60;5.10;;;;;;;;;;4949041;29;20462;-96
2021/05/30 14:33:14;;;;;;;5.87;4.80;;;;;;;;;;4967832;29;20449;-96
2021/05/30 14:49:38;;;;;;;6.30;5.67;;;;;;;;;;4972863;28;20494;-96
2021/05/30 14:54:45;;;;;;;7.37;6.67;;;;;;;;;;5226926;23;20506;-96
2021/05/30 15:39:26;;;;;;;7.67;6.97;;;;;;;;;;5220361;23;20508;-96
2021/05/30 15:41:52;;;;;;;8.20;7.40;;;;;;;;;;4953538;28;20542;-94
2021/05/30 15:55:32;;;;;;;10.63;9.27;;;;;;;;;;5146177;23;20496;-94
2021/05/30 16:22:34;;;;;;;18.27;13.80;;;;;;;;;;5564852;23;21432;31
2021/05/30 16:45:35;;;;;;;15.07;13.57;;;;;;;;;;5991755;23;20996;31
2021/05/30 16:48:03;;;;;;;16.83;15.03;;;;;;;;;;4922568;29;20445;-96
2021/05/30 16:50:39;;;;;;;15.90;14.30;;;;;;;;;;4933752;29;20460;-96
2021/05/30 16:53:07;;;;;;;16.93;15.20;;;;;;;;;;4926753;29;20532;-96
2021/05/30 16:55:35;;;;;;;18.60;16.67;;;;;;;;;;4990975;23;20487;-96
2021/05/30 16:58:02;;;;;;;18.80;16.67;;;;;;;;;;5017743;23;20492;-96
2021/05/30 17:03:29;;;;;;;15.67;14.17;;;;;;;;;;5348747;23;20495;-96
2021/05/30 17:05:55;;;;;;;15.67;14.13;;;;;;;;;;4960319;28;20459;-96
2021/05/30 17:45:08;;;;;;;17.60;15.83;;;;;;;;;;1982952;23;20492;-96
2021/05/30 17:52:46;;;;;;;21.27;17.03;;;;;;;;;;4951109;23;20553;-96
2021/05/30 17:55:13;;;;;;;20.00;18.00;;;;;;;;;;4970644;29;20462;-96
2021/05/30 17:57:41;;;;;;;20.27;18.17;;;;;;;;;;4946599;29;20484;-96
2021/05/30 18:00:08;;;;;;;17.57;15.77;;;;;;;;;;4962059;29;20462;-96
2021/05/30 18:02:35;;;;;;;19.13;17.10;;;;;;;;;;4969212;29;20447;-96
2021/05/30 18:05:01;;;;;;;20.47;17.77;;;;;;;;;;4971579;29;21108;-96
2021/05/30 18:07:33;;;;;;;25.20;16.23;;;;;;;;;;4952966;29;20490;-96
2021/05/30 18:10:00;;;;;;;18.00;16.10;;;;;;;;;;4954944;29;20460;-96
2021/05/30 18:12:26;;;;;;;17.70;15.90;;;;;;;;;;4955861;29;20455;-96
2021/05/30 18:14:57;;;;;;;19.27;17.00;;;;;;;;;;4939766;29;20455;-95
2021/05/30 18:17:26;;;;;;;19.33;17.37;;;;;;;;;;4956080;29;20467;-96
2021/05/30 18:19:52;;;;;;;21.57;19.47;;;;;;;;;;4941325;29;20480;-96
2021/05/30 18:22:24;;;;;;;20.33;18.20;;;;;;;;;;4987832;23;20499;-96
2021/05/30 18:24:50;;;;;;;16.93;15.13;;;;;;;;;;4954039;29;20447;-96
2021/05/30 18:35:37;;;;;;;18.57;16.67;;;;;;;;;;4893286;23;20480;-96
2021/05/30 18:38:04;;;;;;;19.80;15.93;;;;;;;;;;4940399;29;20483;-95
2021/05/30 18:40:34;;;;;;;17.03;15.23;;;;;;;;;;4997723;23;20479;-96
2021/05/30 18:43:04;;;;;;;16.60;14.77;;;;;;;;;;4989901;23;20474;-96
2021/05/30 18:45:31;;;;;;;15.60;14.00;;;;;;;;;;4981470;28;20435;-96
2021/05/30 18:48:09;;;;;;;19.60;13.83;;;;;;;;;;4983021;28;20454;-96
2021/05/30 18:50:37;;;;;;;14.00;12.40;;;;;;;;;;4991309;23;20505;-96
2021/05/30 18:53:05;;;;;;;15.83;12.60;;;;;;;;;;4934356;29;20464;-96
2021/05/30 18:55:32;;;;;;;12.90;11.60;;;;;;;;;;4940974;29;20456;-95
2021/05/30 18:58:00;;;;;;;15.03;12.53;;;;;;;;;;4943128;29;20499;-96
2021/05/30 19:00:26;;;;;;;15.30;11.80;;;;;;;;;;4935379;29;20470;-95
2021/05/30 19:02:52;;;;;;;13.60;12.10;;;;;;;;;;4938845;29;20499;-93
2021/05/30 19:05:19;;;;;;;14.17;12.57;;;;;;;;;;4942854;29;20463;-93
2021/05/30 19:07:45;;;;;;;14.93;12.53;;;;;;;;;;4946866;29;20463;-96
2021/05/30 19:10:14;;;;;;;13.73;11.97;;;;;;;;;;4950371;29;20462;-96
2021/05/30 19:12:45;;;;;;;14.63;13.03;;;;;;;;;;4944783;29;20571;-96
2021/05/30 19:15:13;;;;;;;15.27;12.53;;;;;;;;;;4932721;29;20540;-95
2021/05/30 19:23:03;;;;;;;16.13;12.40;;;;;;;;;;4948160;23;20632;-96
2021/05/30 19:25:35;;;;;;;18.10;13.30;;;;;;;;;;5323991;23;21378;-96
2021/05/30 19:33:24;;;;;;;20.80;15.67;;;;;;;;;;4874066;26;20479;-93
2021/05/30 19:35:51;;;;;;;17.73;14.00;;;;;;;;;;4963058;28;20446;-93
2021/05/30 19:38:17;;;;;;;17.07;14.33;;;;;;;;;;4957678;28;20491;-94
2021/05/30 19:40:48;;;;;;;16.07;14.20;;;;;;;;;;4965170;28;20451;-95
2021/05/30 19:43:14;;;;;;;15.80;12.60;;;;;;;;;;4965292;28;20469;-95
2021/05/30 19:45:40;;;;;;;16.37;13.17;;;;;;;;;;4983737;28;20446;-94
2021/05/30 19:48:06;;;;;;;19.47;12.10;;;;;;;;;;4962027;28;20603;-92
2021/05/30 19:50:33;;;;;;;14.97;12.20;;;;;;;;;;4953381;28;20489;-92
2021/05/30 19:52:59;;;;;;;14.40;12.37;;;;;;;;;;4953685;28;20463;-92
2021/05/30 19:55:25;;;;;;;15.23;12.50;;;;;;;;;;4965015;28;20458;-93
2021/05/30 19:57:51;;;;;;;15.70;12.23;;;;;;;;;;4983029;28;20504;-93
2021/05/30 20:00:19;;;;;;;15.17;12.23;;;;;;;;;;4974197;28;20458;-93
2021/05/30 20:02:46;;;;;;;16.03;12.87;;;;;;;;;;4957827;28;20470;-93
2021/05/30 20:05:12;;;;;;;14.47;12.20;;;;;;;;;;4954529;28;20458;-93
2021/05/30 20:07:39;;;;;;;14.37;11.57;;;;;;;;;;4962280;28;20458;-91
2021/05/30 20:10:13;;;;;;;16.30;12.83;;;;;;;;;;4965748;28;20481;-95
2021/05/30 20:12:39;;;;;;;16.97;12.80;;;;;;;;;;4961716;28;20454;-92
2021/05/30 20:15:07;;;;;;;16.03;13.33;;;;;;;;;;4967928;28;20453;-92
2021/05/30 20:17:33;;;;;;;16.43;12.60;;;;;;;;;;4983972;28;20525;-91
2021/05/30 20:19:59;;;;;;;13.83;12.30;;;;;;;;;;4963239;28;20578;-95
2021/05/30 20:22:25;;;;;;;17.87;12.60;;;;;;;;;;4967520;28;20455;-91
2021/05/30 20:24:53;;;;;;;17.70;12.50;;;;;;;;;;4956275;28;20463;-92
2021/05/30 20:27:23;;;;;;;15.80;13.50;;;;;;;;;;4960198;28;20455;-93